createdAt,value
2018-11-12T00:00:16.208Z,8.80
2018-11-12T00:02:46.780Z,8.90
2018-11-12T00:05:15.877Z,8.90
2018-11-12T00:07:44.709Z,8.90
2018-11-12T00:10:13.511Z,8.90
2018-11-12T00:12:42.327Z,8.90
2018-11-12T00:15:12.258Z,9.00
2018-11-12T00:17:41.084Z,9.00
2018-11-12T00:20:11.262Z,9.00
2018-11-12T00:22:40.089Z,9.00
2018-11-12T00:25:09.068Z,9.00
2018-11-12T00:27:38.237Z,9.00
2018-11-12T00:30:10.057Z,9.10
2018-11-12T00:32:38.945Z,9.10
2018-11-12T00:35:08.598Z,9.00
2018-11-12T00:37:37.447Z,9.00
2018-11-12T00:40:07.660Z,9.00
2018-11-12T00:42:36.560Z,8.90
2018-11-12T00:45:05.952Z,8.90
2018-11-12T00:47:34.741Z,8.80
2018-11-12T00:50:03.656Z,8.80
2018-11-12T00:52:32.486Z,8.70
2018-11-12T00:55:01.264Z,8.70
2018-11-12T00:57:30.096Z,8.60
2018-11-12T00:59:58.937Z,8.60
2018-11-12T01:02:27.782Z,8.60
2018-11-12T01:04:56.659Z,8.50
2018-11-12T01:07:25.447Z,8.50
2018-11-12T01:09:54.396Z,8.50
2018-11-12T01:12:23.298Z,8.50
2018-11-12T01:14:52.114Z,8.50
2018-11-12T01:17:20.937Z,8.40
2018-11-12T01:19:49.748Z,8.50
2018-11-12T01:22:18.591Z,8.50
2018-11-12T01:24:47.333Z,8.40
2018-11-12T01:27:16.166Z,8.40
2018-11-12T01:29:45.002Z,8.40
2018-11-12T01:32:13.853Z,8.50
2018-11-12T01:34:42.683Z,8.50
2018-11-12T01:37:11.506Z,8.40
2018-11-12T01:39:40.263Z,8.40
2018-11-12T01:42:09.168Z,8.40
2018-11-12T01:44:37.950Z,8.40
2018-11-12T01:47:06.811Z,8.50
2018-11-12T01:49:35.571Z,8.50
2018-11-12T01:52:04.487Z,8.50
2018-11-12T01:54:33.300Z,8.60
2018-11-12T01:57:02.081Z,8.50
2018-11-12T01:59:30.891Z,8.60
2018-11-12T02:01:59.771Z,8.60
2018-11-12T02:04:28.570Z,8.50
2018-11-12T02:06:57.387Z,8.40
2018-11-12T02:09:26.256Z,8.40
2018-11-12T02:11:55.022Z,8.40
2018-11-12T02:14:23.928Z,8.30
2018-11-12T02:16:52.747Z,8.30
2018-11-12T02:19:21.661Z,8.20
2018-11-12T02:21:50.478Z,8.20
2018-11-12T02:24:19.322Z,8.20
2018-11-12T02:26:48.145Z,8.10
2018-11-12T02:29:16.992Z,8.10
2018-11-12T02:31:45.784Z,8.10
2018-11-12T02:34:14.727Z,8.10
2018-11-12T02:36:43.544Z,8.00
2018-11-12T02:39:12.376Z,8.00
2018-11-12T02:41:41.285Z,8.00
2018-11-12T02:44:10.085Z,8.00
2018-11-12T02:46:38.949Z,8.00
2018-11-12T02:49:08.008Z,8.00
2018-11-12T02:51:36.819Z,8.00
2018-11-12T02:54:05.698Z,8.00
2018-11-12T02:56:35.245Z,7.90
2018-11-12T02:59:04.107Z,7.90
2018-11-12T03:01:32.935Z,7.90
2018-11-12T03:04:01.733Z,7.90
2018-11-12T03:06:30.541Z,7.90
2018-11-12T03:08:59.354Z,7.90
2018-11-12T03:11:28.213Z,7.80
2018-11-12T03:13:57.006Z,7.80
2018-11-12T03:16:25.839Z,7.80
2018-11-12T03:18:54.684Z,7.80
2018-11-12T03:21:23.516Z,7.80
2018-11-12T03:23:52.337Z,7.80
2018-11-12T03:26:21.163Z,7.80
2018-11-12T03:28:50.001Z,7.80
2018-11-12T03:31:18.880Z,7.70
2018-11-12T03:33:47.676Z,7.60
2018-11-12T03:36:16.541Z,7.60
2018-11-12T03:38:45.406Z,7.60
2018-11-12T03:41:14.203Z,7.60
2018-11-12T03:43:43.041Z,7.50
2018-11-12T03:46:11.884Z,7.50
2018-11-12T03:48:40.684Z,7.50
2018-11-12T03:51:09.504Z,7.50
2018-11-12T03:53:38.336Z,7.50
2018-11-12T03:56:07.802Z,7.50
2018-11-12T03:58:36.910Z,7.50
2018-11-12T04:01:06.320Z,7.40
2018-11-12T04:03:35.172Z,7.40
2018-11-12T04:06:03.970Z,7.30
2018-11-12T04:08:34.279Z,7.30
2018-11-12T04:11:03.082Z,7.20
2018-11-12T04:13:31.957Z,7.20
2018-11-12T04:16:00.781Z,7.20
2018-11-12T04:18:29.620Z,7.20
2018-11-12T04:20:58.477Z,7.10
2018-11-12T04:23:27.274Z,7.20
2018-11-12T04:25:56.106Z,7.10
2018-11-12T04:28:24.893Z,7.10
2018-11-12T04:30:53.763Z,7.00
2018-11-12T04:33:22.521Z,7.00
2018-11-12T04:35:51.357Z,6.90
2018-11-12T04:38:20.193Z,6.90
2018-11-12T04:40:49.086Z,6.80
2018-11-12T04:43:17.903Z,6.70
2018-11-12T04:45:46.785Z,6.70
2018-11-12T04:48:15.582Z,6.70
2018-11-12T04:50:44.420Z,6.60
2018-11-12T04:53:13.241Z,6.50
2018-11-12T04:55:42.095Z,6.50
2018-11-12T04:58:10.915Z,6.50
2018-11-12T05:00:39.766Z,6.40
2018-11-12T05:03:08.597Z,6.40
2018-11-12T05:05:37.443Z,6.40
2018-11-12T05:08:06.382Z,6.40
2018-11-12T05:10:35.163Z,6.40
2018-11-12T05:13:04.031Z,6.40
2018-11-12T05:15:32.838Z,6.40
2018-11-12T05:18:01.639Z,6.40
2018-11-12T05:20:30.890Z,6.40
2018-11-12T05:22:59.710Z,6.40
2018-11-12T05:25:28.577Z,6.40
2018-11-12T05:27:57.470Z,6.50
2018-11-12T05:30:29.213Z,6.40
2018-11-12T05:32:58.535Z,6.50
2018-11-12T05:35:28.544Z,6.50
2018-11-12T05:37:57.472Z,6.50
2018-11-12T05:40:28.528Z,6.50
2018-11-12T05:42:57.482Z,6.50
2018-11-12T05:45:28.523Z,6.50
2018-11-12T05:47:57.389Z,6.50
2018-11-12T05:50:27.450Z,6.50
2018-11-12T05:52:58.650Z,6.50
2018-11-12T05:55:28.425Z,6.40
2018-11-12T05:57:57.411Z,6.40
2018-11-12T06:00:32.268Z,6.40
2018-11-12T06:03:01.538Z,6.40
2018-11-12T06:05:30.588Z,6.50
2018-11-12T06:07:59.445Z,6.50
2018-11-12T06:10:29.492Z,6.50
2018-11-12T06:12:58.319Z,6.60
2018-11-12T06:15:27.222Z,6.60
2018-11-12T06:17:56.027Z,6.60
2018-11-12T06:20:28.155Z,6.60
2018-11-12T06:22:56.988Z,6.50
2018-11-12T06:25:27.235Z,6.50
2018-11-12T06:27:56.306Z,6.50
2018-11-12T06:30:26.605Z,6.50
2018-11-12T06:32:55.418Z,6.50
2018-11-12T06:35:24.313Z,6.50
2018-11-12T06:37:53.742Z,6.40
2018-11-12T06:40:23.706Z,6.40
2018-11-12T06:42:53.142Z,6.40
2018-11-12T06:45:23.249Z,6.40
2018-11-12T06:47:52.904Z,6.40
2018-11-12T06:50:23.011Z,6.40
2018-11-12T06:52:53.033Z,6.50
2018-11-12T06:55:22.272Z,6.50
2018-11-12T06:57:51.437Z,6.50
2018-11-12T07:00:23.416Z,6.60
2018-11-12T07:02:52.475Z,6.70
2018-11-12T07:05:21.579Z,6.80
2018-11-12T07:07:50.496Z,6.90
2018-11-12T07:10:20.706Z,7.00
2018-11-12T07:12:50.468Z,7.10
2018-11-12T07:15:20.601Z,7.20
2018-11-12T07:17:49.411Z,7.40
2018-11-12T07:20:20.011Z,7.40
2018-11-12T07:22:49.197Z,7.60
2018-11-12T07:25:19.416Z,7.70
2018-11-12T07:27:48.342Z,7.70
2018-11-12T07:30:20.382Z,7.80
2018-11-12T07:32:50.114Z,7.90
2018-11-12T07:35:19.415Z,7.90
2018-11-12T07:37:49.431Z,8.00
2018-11-12T07:40:18.761Z,8.10
2018-11-12T07:42:47.777Z,8.10
2018-11-12T07:45:18.867Z,8.20
2018-11-12T07:47:48.662Z,8.20
2018-11-12T07:50:18.751Z,8.30
2018-11-12T07:52:47.636Z,8.30
2018-11-12T07:55:18.225Z,8.40
2018-11-12T07:57:47.995Z,8.50
2018-11-12T08:00:21.116Z,8.50
2018-11-12T08:02:50.938Z,8.60
2018-11-12T08:05:19.810Z,8.70
2018-11-12T08:07:48.579Z,8.70
2018-11-12T08:10:18.726Z,8.80
2018-11-12T08:12:47.995Z,8.90
2018-11-12T08:15:18.967Z,9.00
2018-11-12T08:17:48.032Z,9.00
2018-11-12T08:20:18.079Z,9.00
2018-11-12T08:22:48.093Z,9.10
2018-11-12T08:25:16.950Z,9.20
2018-11-12T08:27:46.338Z,9.20
2018-11-12T08:30:17.922Z,9.30
2018-11-12T08:32:47.862Z,9.30
2018-11-12T08:35:16.989Z,9.30
2018-11-12T08:37:46.468Z,9.40
2018-11-12T08:40:16.647Z,9.40
2018-11-12T08:42:45.595Z,9.40
2018-11-12T08:45:14.719Z,9.50
2018-11-12T08:47:45.034Z,9.60
2018-11-12T08:50:15.825Z,9.70
2018-11-12T08:52:45.758Z,9.80
2018-11-12T08:55:18.784Z,9.90
2018-11-12T08:57:50.181Z,10.00
2018-11-12T09:00:22.182Z,10.10
2018-11-12T09:02:51.288Z,10.20
2018-11-12T09:05:21.197Z,10.30
2018-11-12T09:07:51.451Z,10.40
2018-11-12T09:10:22.101Z,10.50
2018-11-12T09:12:51.011Z,10.60
2018-11-12T09:15:20.055Z,10.70
2018-11-12T09:17:49.344Z,10.70
2018-11-12T09:20:20.469Z,10.80
2018-11-12T09:22:49.247Z,10.80
2018-11-12T09:25:19.330Z,10.80
2018-11-12T09:27:48.140Z,10.90
2018-11-12T09:30:25.409Z,10.90
2018-11-12T09:32:54.219Z,11.00
2018-11-12T09:35:27.379Z,11.00
2018-11-12T09:37:57.032Z,11.10
2018-11-12T09:40:29.030Z,11.10
2018-11-12T09:42:57.858Z,11.20
2018-11-12T09:45:26.729Z,11.20
2018-11-12T09:47:55.657Z,11.30
2018-11-12T09:50:25.563Z,11.30
2018-11-12T09:52:55.455Z,11.40
2018-11-12T09:55:25.469Z,11.60
2018-11-12T09:57:56.074Z,11.60
2018-11-12T10:00:25.097Z,11.70
2018-11-12T10:02:54.605Z,11.80
2018-11-12T10:05:23.896Z,11.80
2018-11-12T10:07:57.323Z,11.80
2018-11-12T10:10:32.412Z,11.90
2018-11-12T10:13:00.757Z,11.90
2018-11-12T10:15:30.141Z,11.90
2018-11-12T10:17:58.820Z,11.90
2018-11-12T10:20:25.369Z,11.90
2018-11-12T10:22:54.258Z,11.90
2018-11-12T10:25:24.110Z,11.90
2018-11-12T10:27:52.952Z,11.90
2018-11-12T10:30:21.810Z,11.90
2018-11-12T10:32:50.662Z,12.00
2018-11-12T10:35:19.493Z,12.10
2018-11-12T10:37:48.305Z,12.10
2018-11-12T10:40:18.429Z,12.20
2018-11-12T10:42:47.371Z,12.20
2018-11-12T10:45:16.557Z,12.20
2018-11-12T10:47:46.282Z,12.10
2018-11-12T10:50:15.315Z,12.10
2018-11-12T10:52:44.134Z,12.10
2018-11-12T10:55:15.576Z,12.10
2018-11-12T10:57:44.901Z,12.10
2018-11-12T11:00:21.700Z,12.00
2018-11-12T11:02:56.002Z,12.10
2018-11-12T11:05:24.892Z,12.20
2018-11-12T11:07:54.394Z,12.40
2018-11-12T11:10:24.855Z,12.60
2018-11-12T11:12:53.896Z,12.90
2018-11-12T11:15:22.906Z,13.10
2018-11-12T11:17:51.793Z,13.20
2018-11-12T11:20:20.619Z,13.40
2018-11-12T11:22:49.589Z,13.40
2018-11-12T11:25:18.429Z,13.50
2018-11-12T11:27:47.330Z,13.60
2018-11-12T11:30:17.233Z,13.70
2018-11-12T11:32:46.220Z,13.90
2018-11-12T11:35:16.366Z,14.00
2018-11-12T11:37:45.215Z,14.20
2018-11-12T11:40:17.022Z,14.30
2018-11-12T11:42:45.869Z,14.50
2018-11-12T11:45:15.760Z,14.60
2018-11-12T11:47:45.375Z,14.70
2018-11-12T11:50:15.761Z,14.80
2018-11-12T11:52:44.927Z,14.90
2018-11-12T11:55:15.223Z,15.00
2018-11-12T11:57:44.277Z,15.10
2018-11-12T12:00:16.190Z,15.20
2018-11-12T12:02:45.935Z,15.30
2018-11-12T12:05:15.994Z,15.40
2018-11-12T12:07:44.869Z,15.50
2018-11-12T12:10:14.493Z,15.50
2018-11-12T12:12:44.001Z,15.60
2018-11-12T12:15:16.940Z,15.60
2018-11-12T12:17:46.028Z,15.60
2018-11-12T12:20:20.191Z,15.60
2018-11-12T12:22:49.113Z,15.60
2018-11-12T12:25:18.355Z,15.60
2018-11-12T12:27:47.735Z,15.60
2018-11-12T12:30:19.110Z,15.50
2018-11-12T12:32:48.856Z,15.50
2018-11-12T12:35:17.761Z,15.60
2018-11-12T12:37:46.993Z,15.60
2018-11-12T12:40:17.088Z,15.60
2018-11-12T12:42:45.950Z,15.70
2018-11-12T12:45:16.369Z,15.70
2018-11-12T12:47:45.777Z,15.60
2018-11-12T12:50:15.596Z,15.60
2018-11-12T12:52:44.468Z,15.50
2018-11-12T12:55:14.367Z,15.50
2018-11-12T12:57:44.031Z,15.50
2018-11-12T13:00:20.859Z,15.40
2018-11-12T13:02:49.878Z,15.40
2018-11-12T13:05:18.907Z,15.40
2018-11-12T13:07:47.778Z,15.40
2018-11-12T13:10:17.969Z,15.40
2018-11-12T13:12:46.928Z,15.40
2018-11-12T13:15:17.897Z,15.30
2018-11-12T13:17:48.470Z,15.20
2018-11-12T13:20:18.719Z,15.20
2018-11-12T13:22:48.165Z,15.20
2018-11-12T13:25:17.066Z,15.20
2018-11-12T13:27:46.482Z,15.20
2018-11-12T13:30:16.993Z,15.20
2018-11-12T13:32:46.415Z,15.20
2018-11-12T13:35:16.560Z,15.30
2018-11-12T13:37:46.345Z,15.20
2018-11-12T13:40:17.630Z,15.20
2018-11-12T13:42:47.808Z,15.10
2018-11-12T13:45:16.782Z,15.00
2018-11-12T13:47:46.057Z,14.90
2018-11-12T13:50:16.201Z,14.80
2018-11-12T13:52:46.332Z,14.70
2018-11-12T13:55:16.352Z,14.70
2018-11-12T13:57:45.527Z,14.60
2018-11-12T14:00:15.602Z,14.60
2018-11-12T14:02:45.463Z,14.50
2018-11-12T14:05:15.861Z,14.50
2018-11-12T14:07:45.205Z,14.40
2018-11-12T14:10:15.517Z,14.40
2018-11-12T14:12:45.548Z,14.40
2018-11-12T14:15:16.941Z,14.30
2018-11-12T14:17:46.141Z,14.30
2018-11-12T14:20:15.006Z,14.20
2018-11-12T14:22:43.929Z,14.10
2018-11-12T14:25:14.234Z,14.10
2018-11-12T14:27:43.407Z,14.00
2018-11-12T14:30:14.509Z,13.80
2018-11-12T14:32:43.364Z,13.70
2018-11-12T14:35:12.958Z,13.70
2018-11-12T14:37:42.882Z,13.60
2018-11-12T14:40:12.953Z,13.50
2018-11-12T14:42:42.358Z,13.50
2018-11-12T14:45:13.636Z,13.40
2018-11-12T14:47:42.930Z,13.40
2018-11-12T14:50:11.832Z,13.30
2018-11-12T14:52:40.766Z,13.20
2018-11-12T14:55:11.459Z,13.10
2018-11-12T14:57:40.384Z,13.00
2018-11-12T15:00:12.320Z,12.90
2018-11-12T15:02:41.142Z,12.80
2018-11-12T15:05:10.274Z,12.80
2018-11-12T15:07:39.330Z,12.70
2018-11-12T15:10:09.769Z,12.60
2018-11-12T15:12:38.597Z,12.50
2018-11-12T15:15:08.965Z,12.40
2018-11-12T15:17:38.389Z,12.40
2018-11-12T15:20:09.243Z,12.30
2018-11-12T15:22:38.209Z,12.20
2018-11-12T15:25:10.676Z,12.10
2018-11-12T15:27:39.465Z,12.10
2018-11-12T15:30:12.978Z,12.00
2018-11-12T15:32:42.337Z,11.90
2018-11-12T15:35:12.340Z,11.80
2018-11-12T15:37:41.837Z,11.80
2018-11-12T15:40:11.560Z,11.80
2018-11-12T15:42:40.984Z,11.70
2018-11-12T15:45:12.392Z,11.70
2018-11-12T15:47:41.378Z,11.70
2018-11-12T15:50:13.867Z,11.60
2018-11-12T15:52:43.094Z,11.60
2018-11-12T15:55:12.059Z,11.50
2018-11-12T15:57:41.164Z,11.50
2018-11-12T16:00:13.191Z,11.50
2018-11-12T16:02:42.086Z,11.50
2018-11-12T16:05:11.733Z,11.50
2018-11-12T16:07:40.624Z,11.40
2018-11-12T16:10:11.675Z,11.40
2018-11-12T16:12:41.029Z,11.30
2018-11-12T16:15:10.550Z,11.30
2018-11-12T16:17:40.310Z,11.30
2018-11-12T16:20:11.846Z,11.10
2018-11-12T16:22:40.706Z,11.10
2018-11-12T16:25:09.592Z,11.00
2018-11-12T16:27:38.383Z,10.90
2018-11-12T16:30:08.380Z,10.80
2018-11-12T16:32:37.428Z,10.70
2018-11-12T16:35:07.952Z,10.60
2018-11-12T16:37:36.809Z,10.50
2018-11-12T16:40:05.916Z,10.50
2018-11-12T16:42:34.782Z,10.50
2018-11-12T16:45:03.902Z,10.50
2018-11-12T16:47:32.859Z,10.60
2018-11-12T16:50:01.679Z,10.70
2018-11-12T16:52:30.563Z,10.80
2018-11-12T16:54:59.365Z,10.90
2018-11-12T16:57:28.261Z,11.00
2018-11-12T16:59:57.138Z,11.20
2018-11-12T17:02:26.047Z,11.30
2018-11-12T17:04:54.872Z,11.40
2018-11-12T17:07:23.752Z,11.50
2018-11-12T17:09:52.569Z,11.60
2018-11-12T17:12:21.805Z,11.60
2018-11-12T17:14:50.652Z,11.70
2018-11-12T17:17:19.767Z,11.60
2018-11-12T17:19:48.604Z,11.60
2018-11-12T17:22:17.473Z,11.60
2018-11-12T17:24:46.441Z,11.60
2018-11-12T17:27:15.351Z,11.60
2018-11-12T17:29:44.245Z,11.60
2018-11-12T17:32:13.165Z,11.60
2018-11-12T17:34:41.977Z,11.60
2018-11-12T17:37:10.932Z,11.60
2018-11-12T17:39:39.817Z,11.60
2018-11-12T17:42:08.760Z,11.50
2018-11-12T17:44:37.741Z,11.60
2018-11-12T17:47:06.593Z,11.60
2018-11-12T17:49:35.433Z,11.60
2018-11-12T17:52:04.302Z,11.60
2018-11-12T17:54:33.197Z,11.60
2018-11-12T17:57:02.015Z,11.60
2018-11-12T17:59:30.943Z,11.50
2018-11-12T18:02:01.909Z,11.50
2018-11-12T18:04:30.749Z,11.50
2018-11-12T18:06:59.575Z,11.50
2018-11-12T18:09:28.509Z,11.40
2018-11-12T18:11:57.315Z,11.40
2018-11-12T18:14:26.512Z,11.30
2018-11-12T18:16:55.425Z,11.30
2018-11-12T18:19:24.340Z,11.20
2018-11-12T18:21:53.230Z,11.20
2018-11-12T18:24:22.249Z,11.20
2018-11-12T18:26:51.363Z,11.20
2018-11-12T18:29:20.268Z,11.10
2018-11-12T18:31:49.339Z,11.10
2018-11-12T18:34:18.143Z,11.10
2018-11-12T18:36:47.383Z,11.10
2018-11-12T18:39:16.225Z,11.00
2018-11-12T18:41:45.399Z,11.10
2018-11-12T18:44:14.322Z,11.00
2018-11-12T18:46:43.308Z,10.90
2018-11-12T18:49:12.208Z,10.90
2018-11-12T18:51:44.209Z,10.80
2018-11-12T18:54:13.126Z,10.90
2018-11-12T18:56:42.134Z,10.80
2018-11-12T18:59:10.976Z,10.70
2018-11-12T19:01:40.176Z,10.70
2018-11-12T19:04:09.052Z,10.60
2018-11-12T19:06:37.944Z,10.60
2018-11-12T19:09:08.783Z,10.60
2018-11-12T19:11:37.847Z,10.50
2018-11-12T19:14:07.432Z,10.50
2018-11-12T19:16:36.473Z,10.40
2018-11-12T19:19:05.393Z,10.30
2018-11-12T19:21:34.284Z,10.20
2018-11-12T19:24:03.279Z,10.20
2018-11-12T19:26:32.104Z,10.20
2018-11-12T19:29:01.006Z,10.10
2018-11-12T19:31:29.865Z,10.10
2018-11-12T19:33:59.326Z,10.10
2018-11-12T19:36:28.143Z,10.00
2018-11-12T19:38:57.086Z,10.00
2018-11-12T19:41:26.996Z,10.00
2018-11-12T19:43:56.036Z,10.00
2018-11-12T19:46:24.945Z,9.90
2018-11-12T19:48:54.470Z,9.90
2018-11-12T19:51:23.604Z,9.80
2018-11-12T19:53:53.379Z,9.80
2018-11-12T19:56:23.060Z,9.70
2018-11-12T19:58:52.086Z,9.70
2018-11-12T20:01:21.481Z,9.70
2018-11-12T20:03:50.762Z,9.70
2018-11-12T20:06:21.018Z,9.70
2018-11-12T20:08:50.460Z,9.70
2018-11-12T20:11:19.417Z,9.70
2018-11-12T20:13:48.832Z,9.70
2018-11-12T20:16:17.877Z,9.60
2018-11-12T20:18:47.003Z,9.60
2018-11-12T20:21:16.080Z,9.60
2018-11-12T20:23:46.477Z,9.50
2018-11-12T20:26:15.500Z,9.40
2018-11-12T20:28:44.719Z,9.40
2018-11-12T20:31:14.780Z,9.30
2018-11-12T20:33:43.801Z,9.30
2018-11-12T20:36:13.438Z,9.20
2018-11-12T20:38:42.473Z,9.20
2018-11-12T20:41:11.265Z,9.10
2018-11-12T20:43:40.747Z,9.10
2018-11-12T20:46:09.631Z,9.10
2018-11-12T20:48:38.544Z,9.00
2018-11-12T20:51:07.469Z,9.10
2018-11-12T20:53:36.322Z,9.10
2018-11-12T20:56:06.766Z,9.10
2018-11-12T20:58:36.261Z,9.20
2018-11-12T21:01:05.187Z,9.20
2018-11-12T21:03:34.080Z,9.20
2018-11-12T21:06:03.009Z,9.30
2018-11-12T21:08:32.358Z,9.30
2018-11-12T21:11:01.223Z,9.30
2018-11-12T21:13:30.031Z,9.40
2018-11-12T21:15:59.008Z,9.50
2018-11-12T21:18:27.885Z,9.50
2018-11-12T21:20:56.743Z,9.60
2018-11-12T21:23:25.622Z,9.60
2018-11-12T21:25:54.439Z,9.70
2018-11-12T21:28:23.409Z,9.80
2018-11-12T21:30:52.260Z,9.80
2018-11-12T21:33:21.127Z,9.80
2018-11-12T21:35:50.002Z,9.90
2018-11-12T21:38:18.913Z,9.90
2018-11-12T21:40:47.779Z,9.90
2018-11-12T21:43:16.682Z,10.00
2018-11-12T21:45:45.590Z,10.00
2018-11-12T21:48:14.481Z,10.10
2018-11-12T21:50:43.328Z,10.20
2018-11-12T21:53:12.151Z,10.20
2018-11-12T21:55:41.091Z,10.30
2018-11-12T21:58:09.967Z,10.30
2018-11-12T22:00:38.895Z,10.40
2018-11-12T22:03:07.760Z,10.30
2018-11-12T22:05:36.604Z,10.30
2018-11-12T22:08:06.283Z,10.40
2018-11-12T22:10:35.164Z,10.30
2018-11-12T22:13:04.058Z,10.30
2018-11-12T22:15:32.930Z,10.30
2018-11-12T22:18:01.785Z,10.30
2018-11-12T22:20:30.618Z,10.30
2018-11-12T22:22:59.587Z,10.30
2018-11-12T22:25:28.384Z,10.30
2018-11-12T22:27:57.868Z,10.30
2018-11-12T22:30:27.473Z,10.30
2018-11-12T22:32:56.915Z,10.30
2018-11-12T22:35:25.789Z,10.30
2018-11-12T22:37:54.651Z,10.20
2018-11-12T22:40:23.543Z,10.20
2018-11-12T22:42:53.145Z,10.20
2018-11-12T22:45:23.163Z,10.10
2018-11-12T22:47:52.306Z,10.00
2018-11-12T22:50:21.268Z,10.00
2018-11-12T22:52:50.067Z,9.90
2018-11-12T22:55:19.664Z,9.90
2018-11-12T22:57:48.525Z,10.00
2018-11-12T23:00:24.641Z,10.00
2018-11-12T23:02:53.865Z,10.00
2018-11-12T23:05:23.011Z,10.00
2018-11-12T23:07:52.462Z,10.00
2018-11-12T23:10:21.790Z,10.00
2018-11-12T23:12:50.691Z,10.00
2018-11-12T23:15:19.943Z,9.90
2018-11-12T23:17:48.867Z,9.90
2018-11-12T23:20:20.153Z,9.90
2018-11-12T23:22:49.526Z,9.80
2018-11-12T23:25:18.373Z,9.80
2018-11-12T23:27:47.823Z,9.70
2018-11-12T23:30:17.818Z,9.70
2018-11-12T23:32:46.686Z,9.70
2018-11-12T23:35:22.976Z,9.70
2018-11-12T23:37:52.069Z,9.60
2018-11-12T23:40:20.900Z,9.60
2018-11-12T23:42:49.738Z,9.50
2018-11-12T23:45:18.535Z,9.50
2018-11-12T23:47:47.381Z,9.40
2018-11-12T23:50:19.606Z,9.50
2018-11-12T23:52:49.141Z,9.50
2018-11-12T23:55:18.337Z,9.50
2018-11-12T23:57:47.754Z,9.40
